Terminal Aerodrome Forecast
Issued by NWS

Home | Current Version | Previous Version | Text Only | Print | Product List | Glossary On
Versions: 1 2 3 4 5 6 7 8 9 10 11 12 13 14
056
FTUS46 KSTO 211727
TAFSCK
TAF
KSCK 211727Z 2118/2218 15007KT P6SM BKN100
     FM220600 14006KT P6SM OVC050
     FM220900 14008KT P6SM -SHRA OVC035=

USA.gov is the U.S. government's official web portal to all federal, state and local government web resources and services.